Impacts METAR Board
IDs:

KSEA - Seattle-Tacoma Intl, WA, US

Updated at: 1000 UTC 24 Jan 2019
Potential Impact None Slight Moderate High
Time 23/22Z 23/23Z 24/00Z 24/01Z 24/02Z 24/03Z 24/04Z 24/05Z 24/06Z 24/07Z 24/08Z 24/09Z 24/10Z
Temp49 49 49 48 47 47 46 46 46 46 46 45 46
Dewpt42 42 42 42 42 42 42 41 42 43 43 44 43
Altim30.35 30.36 30.37 30.38 30.39 30.41 30.43 30.42 30.44 30.46 30.49 30.48 30.51
VIS10 10 10 10 10 10 10 9 10 10 4 1 0.75
CIG28 12 25 25 27 48 44 24 11 12 13 4 4
CoverBKNBKNBKNBKNOVCOVCOVCOVCOVCOVCOVCOVCOVC
FltCatMVFRMVFRMVFRMVFRMVFRVFRVFRMVFRMVFRMVFRMVFRLIFRLIFR
WX---------------DZ-----DZ BR-RA BR-RA BR
WDir20403405030002900030000340
WSpd6 5 3 3 3 0 3 0 0 3 0 0 4
WGst-- -- -- -- -- -- -- -- -- -- -- -- --
Raw hourly METARs
KSEA 232153Z 02006KT 10SM FEW007 SCT013 BKN028 09/06 A3035 RMK AO2 SLP283 T00940056
KSEA 232304Z 04005KT 10SM BKN012 BKN034 09/06 A3036 RMK AO2 T00940056
KSEA 232353Z 34003KT 10SM FEW012 BKN025 09/06 A3037 RMK AO2 SLP291 T00940056 10106 20078 53010
KSEA 240053Z 05003KT 10SM BKN025 BKN036 09/06 A3038 RMK AO2 SLP296 T00890056
KSEA 240153Z 30003KT 10SM BKN027 OVC033 08/06 A3039 RMK AO2 SLP300 T00830056
KSEA 240253Z 00000KT 10SM SCT027 OVC048 08/06 A3041 RMK AO2 SLP304 T00830056 51012
KSEA 240353Z 29003KT 10SM OVC044 08/06 A3043 RMK AO2 SLP311 T00780056
KSEA 240453Z 00000KT 9SM -DZ FEW012 BKN024 OVC038 08/05 A3042 RMK AO2 DZB27 SLP310 P0000 T00780050
KSEA 240553Z 00000KT 10SM OVC011 08/06 A3044 RMK AO2 DZE15 SLP316 P0000 60000 T00780056 10094 20078 51011
KSEA 240653Z 30003KT 10SM OVC012 08/06 A3046 RMK AO2 SLP324 T00780061
KSEA 240753Z 00000KT 4SM -DZ BR OVC013 08/06 A3049 RMK AO2 DZB18 SLP333 P0001 T00780061 401060078
KSEA 240853Z 00000KT 1SM R16L/P6000FT -RA BR BKN004 BKN013 OVC020 07/07 A3048 RMK AO2 DZE22RAB22 SLP330 P0001 60002 T00720067 50015
KSEA 240953Z 34004KT 3/4SM R16L/4000VP6000FT -RA BR OVC004 08/06 A3051 RMK AO2 SLP338 P0005 T00780061



Page loaded:  10:57 UTC  |   02:57 AM Pacific  |   03:57 AM Mountain  |   04:57 AM Central  |   05:57 AM Eastern

 

ADVISORIES

FORECASTS

FORECASTS

OBSERVATIONS

USER TOOLS

ABOUT US